Latest Coastal Weather Observations for Roebourne Airport

IDW60701

Issued at 10:22 pm WST Monday 30 May 2016 (issued every 10 minutes, with the page automatically refreshed every 10 minutes)

About coastal observations | Map of coastal stations | Coastal observations for WA | Marine services | Other Formats
Station Details ID: 004090 Name: ROEBOURNE AERO Lat: -20.76 Lon: 117.16 Height: 10.7 m
Data from the previous 72 hours. | See also: Recent months at Roebourne Airport
Date/Time
WST
Temp

°C
Wind Pressure Rain
since 9am
mm
Weather Cloud Vis
km
Sea
Height
m
Swell
Dir
 
Speed
knots
Gust
knots
hPa Trend Height
m
Period
s
Dir
30/10:00pm 22.7 W 8 10 1014.2 - 0.0 - - - - - - -
30/09:30pm 23.4 WSW 6 8 1014.0 - 0.0 - - - - - - -
30/09:00pm 23.9 W 10 13 1014.4 - 0.0 - - - - - - -
30/08:30pm 24.5 W 9 11 1014.0 - 0.0 - - - - - - -
30/08:00pm 25.0 W 7 10 1013.7 - 0.0 - - - - - - -
30/07:30pm 25.7 W 6 9 1013.1 - 0.0 - - - - - - -
30/07:00pm 26.2 WNW 8 10 1013.1 - 0.0 - - - - - - -
30/06:30pm 27.0 WNW 9 11 1012.7 - 0.0 - - - - - - -
30/06:00pm 27.5 WNW 9 11 1012.5 - 0.0 - - - - - - -
30/05:30pm 28.3 NW 10 13 1012.2 - 0.0 - - - - - - -
30/05:00pm 29.4 NW 11 13 1012.0 - 0.0 - - - - - - -
30/04:30pm 29.7 NW 11 13 1011.6 - 0.0 - - - - - - -
30/04:00pm 30.2 NW 10 15 1011.2 - 0.0 - - - - - - -
30/03:30pm 30.6 WNW 11 13 1011.2 - 0.0 - - - - - - -
30/03:00pm 32.0 WNW 10 13 1011.0 - 0.0 - - - - - - -
30/02:30pm 31.5 NW 12 15 1011.0 - 0.0 - - - - - - -
30/02:00pm 31.6 NW 10 13 1010.9 - 0.0 - - - - - - -
30/01:30pm 32.2 WNW 9 15 1010.9 - 0.0 - - - - - - -
30/01:00pm 31.8 WNW 8 12 1011.3 - 0.0 - - - - - - -
30/12:30pm 32.3 WNW 8 11 1011.7 - 0.0 - - - - - - -
30/12:00pm 32.1 NW 7 10 1012.2 - 0.0 - - - - - - -
30/11:30am 32.1 NW 6 9 1012.6 - 0.0 - - - - - - -
30/11:00am 30.5 W 4 7 1012.9 - 0.0 - - - - - - -
30/10:30am 29.2 ESE 3 5 1013.1 - 0.0 - - - - - - -
30/10:00am 28.3 SSW 1 4 1013.4 - 0.0 - - - - - - -
30/09:30am 27.2 S 3 5 1013.5 - 0.0 - - - - - - -
30/09:00am 25.6 SSE 4 5 1013.3 - 0.0 - - - - - - -
30/08:30am 24.1 SSW 4 5 1013.1 - 0.0 - - - - - - -
30/08:00am 21.6 SW 4 6 1013.0 - 0.0 - - - - - - -
30/07:30am 18.5 SW 4 4 1012.8 - 0.0 - - - - - - -
30/07:00am 15.9 SW 3 5 1012.6 - 0.0 - - - - - - -
30/06:30am 15.6 SSW 5 6 1012.5 - 0.0 - - - - - - -
30/06:00am 16.1 WSW 1 3 1012.1 - 0.0 - - - - - - -
30/05:30am 16.8 SW 2 4 1011.9 - 0.0 - - - - - - -
30/05:00am 15.8 SSW 4 5 1011.8 - 0.0 - - - - - - -
30/04:30am 15.8 SSW 4 5 1011.7 - 0.0 - - - - - - -
30/04:00am 16.4 CALM 0 0 1011.6 - 0.0 - - - - - - -
30/03:30am 16.6 WNW 4 4 1011.7 - 0.0 - - - - - - -
30/03:00am 16.4 NW 1 4 1011.9 - 0.0 - - - - - - -
30/02:30am 17.0 S 4 4 1011.9 - 0.0 - - - - - - -
30/02:00am 18.7 WSW 4 6 1012.2 - 0.0 - - - - - - -
30/01:30am 19.7 WNW 6 7 1012.1 - 0.0 - - - - - - -
30/01:00am 20.2 WSW 4 5 1012.3 - 0.0 - - - - - - -
30/12:30am 20.5 W 6 7 1012.5 - 0.0 - - - - - - -
30/12:00am 20.8 WNW 6 8 1012.6 - 0.0 - - - - - - -
 
Date/Time
WST
Temp

°C
Wind Pressure Rain
since 9am
mm
Weather Cloud Vis
km
Sea
Height
m
Swell
Dir
 
Speed
knots
Gust
knots
hPa Trend Height
m
Period
s
Dir
29/11:30pm 21.1 W 6 7 1013.0 - 0.0 - - - - - - -
29/11:00pm 21.9 W 9 10 1013.4 - 0.0 - - - - - - -
29/10:30pm 22.7 W 8 9 1013.5 - 0.0 - - - - - - -
29/10:00pm 22.2 W 9 10 1013.5 - 0.0 - - - - - - -
29/09:30pm 23.2 W 9 11 1013.6 - 0.0 - - - - - - -
29/09:00pm 23.3 W 8 9 1013.4 - 0.0 - - - - - - -
29/08:30pm 23.6 W 8 9 1013.2 - 0.0 - - - - - - -
29/08:00pm 24.0 W 8 9 1013.0 - 0.0 - - - - - - -
29/07:30pm 24.7 WNW 9 11 1012.7 - 0.0 - - - - - - -
29/07:00pm 25.2 WNW 9 11 1012.6 - 0.0 - - - - - - -
29/06:30pm 25.5 NW 8 9 1012.3 - 0.0 - - - - - - -
29/06:00pm 26.5 NW 8 10 1011.9 - 0.0 - - - - - - -
29/05:30pm 27.8 NW 10 13 1011.7 - 0.0 - - - - - - -
29/05:00pm 29.1 NW 12 14 1011.5 - 0.0 - - - - - - -
29/04:30pm 30.2 NW 12 15 1011.3 - 0.0 - - - - - - -
29/04:00pm 30.7 NW 12 15 1010.9 - 0.0 - - - - - - -
29/03:30pm 31.3 NW 12 15 1010.8 - 0.0 - - - - - - -
29/03:00pm 31.8 NW 10 14 1010.7 - 0.0 - - - - - - -
29/02:30pm 32.2 NW 10 15 1010.7 - 0.0 - - - - - - -
29/02:00pm 32.8 NW 10 14 1010.7 - 0.0 - - - - - - -
29/01:30pm 32.7 NNW 10 14 1011.1 - 0.0 - - - - - - -
29/01:00pm 32.2 NNW 11 15 1011.3 - 0.0 - - - - - - -
29/12:30pm 31.9 N 10 14 1011.8 - 0.0 - - - - - - -
29/12:00pm 32.0 NE 7 11 1012.3 - 0.0 - - - - - - -
29/11:30am 31.5 NNE 4 8 1012.8 - 0.0 - - - - - - -
29/11:00am 30.3 NNE 5 8 1013.2 - 0.0 - - - - - - -
29/10:30am 30.1 NE 5 8 1013.6 - 0.0 - - - - - - -
29/10:00am 28.7 E 5 7 1013.8 - 0.0 - - - - - - -
29/09:30am 27.9 E 3 7 1014.1 - 0.0 - - - - - - -
29/09:00am 26.1 E 3 5 1014.0 - 0.0 - - - - - - -
29/08:30am 24.4 CALM 0 0 1013.7 - 0.0 - - - - - - -
29/08:00am 22.3 CALM 0 0 1013.5 - 0.0 - - - - - - -
29/07:30am 19.6 CALM 0 0 1013.3 - 0.0 - - - - - - -
29/07:00am 16.6 SSW 3 4 1013.0 - 0.0 - - - - - - -
29/06:30am 16.3 SSW 4 5 1012.6 - 0.0 - - - - - - -
29/06:00am 17.4 NW 3 4 1012.3 - 0.0 - - - - - - -
29/05:30am 19.2 WSW 3 4 1012.1 - 0.0 - - - - - - -
29/05:00am 21.1 WSW 6 7 1012.2 - 0.0 - - - - - - -
29/04:30am 20.5 WSW 6 8 1012.1 - 0.0 - - - - - - -
29/04:00am 22.0 WSW 6 8 1011.8 - 0.0 - - - - - - -
29/03:30am 21.3 W 5 6 1011.9 - 0.0 - - - - - - -
29/03:00am 19.1 WSW 5 7 1011.9 - 0.0 - - - - - - -
29/02:30am 19.0 W 4 5 1011.7 - 0.0 - - - - - - -
29/02:00am 19.5 W 5 6 1011.8 - 0.0 - - - - - - -
29/01:30am 20.0 WSW 4 5 1012.0 - 0.0 - - - - - - -
29/01:00am 22.0 WNW 6 7 1012.2 - 0.0 - - - - - - -
29/12:30am 22.1 W 3 6 1012.3 - 0.0 - - - - - - -
29/12:00am 23.0 WSW 4 6 1012.6 - 0.0 - - - - - - -
 
Date/Time
WST
Temp

°C
Wind Pressure Rain
since 9am
mm
Weather Cloud Vis
km
Sea
Height
m
Swell
Dir
 
Speed
knots
Gust
knots
hPa Trend Height
m
Period
s
Dir
28/11:30pm 23.1 W 5 6 1012.7 - 0.0 - - - - - - -
28/11:00pm 23.8 WNW 7 9 1013.0 - 0.0 - - - - - - -
28/10:30pm 22.6 NW 1 4 1013.0 - 0.0 - - - - - - -
28/10:00pm 23.7 WNW 4 5 1013.2 - 0.0 - - - - - - -
28/09:30pm 22.7 NNW 6 6 1013.3 - 0.0 - - - - - - -
28/09:00pm 23.1 NNW 3 4 1013.3 - 0.0 - - - - - - -
28/08:30pm 24.7 WNW 6 7 1013.3 - 0.0 - - - - - - -
28/08:00pm 25.4 WNW 8 9 1013.1 - 0.0 - - - - - - -
28/07:30pm 26.0 WNW 8 10 1012.9 - 0.0 - - - - - - -
28/07:00pm 26.3 WNW 9 11 1012.7 - 0.0 - - - - - - -
28/06:30pm 26.5 NW 7 8 1012.3 - 0.0 - - - - - - -
28/06:00pm 27.1 NW 9 11 1011.8 - 0.0 - - - - - - -
28/05:30pm 28.1 NW 11 13 1011.6 - 0.0 - - - - - - -
28/05:00pm 29.3 NW 12 14 1011.4 - 0.0 - - - - - - -
28/04:30pm 30.0 NW 11 13 1011.3 - 0.0 - - - - - - -
28/04:00pm 30.8 NW 10 14 1011.2 - 0.0 - - - - - - -
28/03:30pm 30.9 NNW 11 14 1011.0 - 0.0 - - - - - - -
28/03:00pm 31.4 NNW 10 14 1011.0 - 0.0 - - - - - - -
28/02:30pm 31.2 NNW 9 15 1011.1 - 0.0 - - - - - - -
28/02:00pm 31.9 N 10 14 1011.5 - 0.0 - - - - - - -
28/01:30pm 31.1 NNW 8 13 1011.8 - 0.0 - - - - - - -
28/01:00pm 30.8 NNW 9 14 1012.2 - 0.0 - - - - - - -
28/12:30pm 31.4 NNE 11 16 1012.5 - 0.0 - - - - - - -
28/12:00pm 30.9 NNE 9 13 1012.8 - 0.0 - - - - - - -
28/11:30am 30.6 NE 6 9 1013.3 - 0.0 - - - - - - -
28/11:00am 30.3 NNE 5 9 1013.8 - 0.0 - - - - - - -
28/10:30am 29.5 NNE 4 7 1014.4 - 0.0 - - - - - - -
28/10:00am 29.2 NNE 3 5 1014.8 - 0.0 - - - - - - -
28/09:30am 28.6 NNE 2 5 1015.2 - 0.0 - - - - - - -
28/09:00am 27.1 N 1 3 1015.3 - 0.0 - - - - - - -
28/08:30am 26.2 N 1 3 1015.2 - 0.0 - - - - - - -
28/08:00am 23.7 CALM 0 0 1015.2 - 0.0 - - - - - - -
28/07:30am 20.8 CALM 0 0 1015.0 - 0.0 - - - - - - -
28/07:00am 18.4 NW 1 3 1014.8 - 0.0 - - - - - - -
28/06:30am 19.3 NNW 3 3 1014.6 - 0.0 - - - - - - -
28/06:00am 19.5 CALM 0 0 1014.6 - 0.0 - - - - - - -
28/05:30am 20.0 CALM 0 0 1014.4 - 0.0 - - - - - - -
28/05:00am 20.4 CALM 0 0 1014.2 - 0.0 - - - - - - -
28/04:30am 20.8 SSW 4 4 1014.3 - 0.0 - - - - - - -
28/04:00am 21.4 W 3 5 1014.4 - 0.0 - - - - - - -
28/03:30am 21.5 NW 4 5 1014.4 - 0.0 - - - - - - -
28/03:00am 21.8 CALM 0 0 1014.6 - 0.0 - - - - - - -
28/02:30am 22.0 CALM 0 0 1014.7 - 0.0 - - - - - - -
28/02:00am 22.3 WNW 3 3 1014.9 - 0.0 - - - - - - -
28/01:30am 22.0 NW 4 5 1014.9 - 0.0 - - - - - - -
28/01:00am 22.4 NW 3 4 1015.2 - 0.0 - - - - - - -
28/12:30am 23.0 CALM 0 3 1015.5 - 0.0 - - - - - - -
28/12:00am 23.1 WSW 4 5 1015.6 - 0.0 - - - - - - -
 
Date/Time
WST
Temp

°C
Wind Pressure Rain
since 9am
mm
Weather Cloud Vis
km
Sea
Height
m
Swell
Dir
 
Speed
knots
Gust
knots
hPa Trend Height
m
Period
s
Dir
27/11:30pm 22.6 CALM 0 0 1015.6 - 0.0 - - - - - - -
27/11:00pm 23.0 W 1 3 1015.7 - 0.0 - - - - - - -
27/10:30pm 24.0 W 4 5 1015.7 - 0.0 - - - - - - -

Other Formats:

Comma delimited format used in spreadsheet applications
http://www.bom.gov.au/fwo/IDW60701/IDW60701.94308.axf

JavaScript Object Notation format (JSON) in row-major order
http://www.bom.gov.au/fwo/IDW60701/IDW60701.94308.json